Latest Weather Observations for Southern Cross Airport

IDW60801

Issued at 3:33 pm WST Friday 1 July 2016 (issued every 30 minutes, with the page automatically refreshed every 10 minutes)

About weather observations | Map of weather stations | Latest weather observations for WA | Other Formats
Station Details ID: 012320 Name: SOUTHERN CROSS AIRFIELD Lat: -31.24 Lon: 119.36 Height: 347.4 m
Data from the previous 72 hours. | See also: Recent months at Southern Cross Airport
Date/Time
WST
Temp
°C
App
Temp
°C
Dew
Point
°C
Rel
Hum
%
Delta-T
°C
Wind Press
QNH
hPa
Press
MSL
hPa
Rain since
9am
mm
Dir  Spd
km/h
Gust
km/h
Spd
kts
Gust
kts
01/03:30pm 17.2 14.0 3.1 39 6.6 SE 9 13 5 7 1025.5 1025.8 0.0
01/03:00pm 17.3 14.1 3.2 39 6.6 SE 9 13 5 7 1025.6 1025.9 0.0
01/02:30pm 17.4 14.7 2.6 37 6.9 E 6 7 3 4 1025.7 1026.0 0.0
01/02:00pm 16.8 13.8 1.7 36 6.8 E 7 13 4 7 1025.8 1026.1 0.0
01/01:30pm 17.0 13.7 2.6 38 6.7 NE 9 15 5 8 1026.0 1026.3 0.0
01/01:00pm 16.6 13.1 1.5 36 6.8 NE 9 17 5 9 1026.3 1026.7 0.0
01/12:30pm 16.5 13.2 2.2 38 6.5 NE 9 13 5 7 1026.8 1027.1 0.0
01/12:00pm 15.7 12.2 3.5 44 5.7 NNE 11 19 6 10 1027.5 1027.8 0.0
01/11:30am 14.2 12.4 5.6 56 4.1 SW 4 13 2 7 1027.9 1028.2 0.0
01/11:00am 12.5 11.3 6.3 66 3.0 SW 2 6 1 3 1028.5 1028.8 0.0
01/10:30am 12.0 11.2 6.3 68 2.7 CALM 0 0 0 0 1029.1 1029.5 0.0
01/10:00am 9.2 8.4 6.5 83 1.3 CALM 0 0 0 0 1029.4 1029.8 0.0
01/09:30am 7.0 5.7 6.1 94 0.4 SW 2 6 1 3 1029.4 1029.8 0.0
01/09:00am 4.5 2.0 3.9 96 0.3 SW 6 7 3 4 1029.2 1029.6 0.2
01/08:30am 2.5 0.8 1.9 96 0.2 CALM 0 0 0 0 1028.9 1029.3 0.2
01/08:00am 0.7 -1.3 0.0 95 0.3 CALM 0 0 0 0 1028.8 1029.2 0.2
01/07:30am -0.5 -2.7 -1.2 95 0.2 CALM 0 0 0 0 1028.5 1028.6 0.0
01/07:00am -0.9 -3.1 -1.6 95 0.2 CALM 0 0 0 0 1028.3 1028.4 0.0
01/06:30am -0.3 -3.6 -1.0 95 0.2 S 6 9 3 5 1028.0 1028.1 0.0
01/06:00am -0.3 -3.2 -1.0 95 0.2 SSW 4 7 2 4 1027.9 1028.0 0.0
01/05:30am -0.1 -2.2 -0.8 95 0.2 CALM 0 0 0 0 1027.8 1027.9 0.0
01/05:00am -0.2 -2.3 -0.9 95 0.2 CALM 0 0 0 0 1027.4 1027.5 0.0
01/04:30am 0.3 -3.1 -0.4 95 0.3 SSW 7 9 4 5 1027.4 1027.5 0.0
01/04:00am 0.5 -1.9 -0.2 95 0.3 SSW 2 7 1 4 1027.3 1027.4 0.0
01/03:30am 0.5 -1.5 -0.4 94 0.3 CALM 0 0 0 0 1027.3 1027.4 0.0
01/03:00am 0.5 -1.5 -0.4 94 0.3 CALM 0 0 0 0 1027.4 1027.5 0.0
01/02:30am 1.0 -2.3 0.1 94 0.3 SSW 7 9 4 5 1027.6 1027.7 0.0
01/02:00am 1.3 -1.8 0.3 93 0.4 SE 6 7 3 4 1027.6 1027.7 0.0
01/01:30am 1.8 -0.8 0.8 93 0.4 SSE 4 7 2 4 1027.6 1027.7 0.0
01/01:00am 2.5 0.7 1.5 93 0.4 CALM 0 0 0 0 1027.7 1027.8 0.0
01/12:30am 2.1 0.3 1.1 93 0.4 CALM 0 0 0 0 1027.8 1027.9 0.0
01/12:00am 3.0 0.9 2.0 93 0.4 SSW 2 9 1 5 1027.9 1028.0 0.0
 
Date/Time
WST
Temp
°C
App
Temp
°C
Dew
Point
°C
Rel
Hum
%
Delta-T
°C
Wind Press
QNH
hPa
Press
MSL
hPa
Rain since
9am
mm
Dir  Spd
km/h
Gust
km/h
Spd
kts
Gust
kts
30/11:30pm 2.8 1.1 1.6 92 0.5 CALM 0 0 0 0 1028.0 1028.1 0.0
30/11:00pm 3.6 2.0 2.3 91 0.5 CALM 0 0 0 0 1028.1 1028.2 0.0
30/10:30pm 4.3 2.7 2.3 87 0.8 CALM 0 6 0 3 1028.0 1028.1 0.0
30/10:00pm 5.5 2.8 3.7 88 0.8 SSE 7 9 4 5 1027.9 1028.0 0.0
30/09:30pm 5.9 3.1 3.4 84 1.1 SSE 7 9 4 5 1027.8 1027.9 0.0
30/09:00pm 5.0 3.5 3.0 87 0.8 CALM 0 0 0 0 1027.7 1027.8 0.0
30/08:30pm 5.7 4.3 3.5 86 0.9 CALM 0 0 0 0 1027.3 1027.4 0.0
30/08:00pm 6.2 3.1 3.7 84 1.1 SSE 9 11 5 6 1027.1 1027.2 0.0
30/07:30pm 6.7 5.4 3.9 82 1.2 CALM 0 0 0 0 1026.9 1027.0 0.0
30/07:00pm 7.2 5.9 4.0 80 1.4 CALM 0 0 0 0 1026.4 1026.6 0.0
30/06:30pm 8.5 7.3 4.5 76 1.8 CALM 0 0 0 0 1026.0 1026.1 0.0
30/06:00pm 9.9 7.5 4.5 69 2.4 SSW 6 7 3 4 1025.6 1025.7 0.0
30/05:30pm 11.4 8.7 5.5 67 2.8 SSW 9 11 5 6 1025.3 1025.4 0.0
30/05:00pm 12.7 9.8 4.9 59 3.6 SSW 9 11 5 6 1025.1 1025.2 0.0
30/04:30pm 14.2 11.1 3.7 49 4.9 SSW 9 11 5 6 1024.7 1024.8 0.0
30/04:00pm 14.6 10.9 2.5 44 5.5 S 11 17 6 9 1024.7 1024.8 0.0
30/03:30pm 14.8 11.2 2.7 44 5.5 SSW 11 15 6 8 1024.7 1024.8 0.0
30/03:00pm 14.8 11.2 3.0 45 5.4 S 11 17 6 9 1024.5 1024.6 0.0
30/02:30pm 14.8 11.6 3.3 46 5.3 SSW 9 15 5 8 1024.4 1024.5 0.0
30/02:00pm 14.8 11.3 3.6 47 5.2 S 11 17 6 9 1024.3 1024.4 0.0
30/01:30pm 14.8 11.8 3.9 48 5.1 WSW 9 15 5 8 1024.7 1024.8 0.0
30/01:00pm 15.0 13.4 4.4 49 5.0 SW 2 7 1 4 1025.0 1025.1 0.0
30/12:30pm 15.2 13.2 6.2 55 4.4 W 6 9 3 5 1025.4 1025.5 0.0
30/12:00pm 13.8 11.5 5.7 58 3.9 SE 7 13 4 7 1025.8 1025.9 0.0
30/11:30am 13.4 10.6 5.1 57 3.9 SE 9 15 5 8 1026.3 1026.5 0.0
30/11:00am 12.8 9.2 5.2 60 3.6 SE 13 19 7 10 1026.9 1027.0 0.0
30/10:30am 12.1 8.8 6.4 68 2.8 SE 13 17 7 9 1027.1 1027.2 0.0
30/10:00am 9.2 8.8 8.4 95 0.4 CALM 0 0 0 0 1027.2 1027.3 0.0
30/09:30am 7.4 6.3 7.0 97 0.2 SSW 2 6 1 3 1027.2 1027.3 0.0
30/09:00am 5.4 4.3 5.0 97 0.2 CALM 0 6 0 3 1027.1 1027.2 -
30/08:30am 3.9 2.5 3.5 97 0.2 CALM 0 0 0 0 1026.9 1027.0 -
30/08:00am 2.1 0.0 1.7 97 0.2 NW 2 6 1 3 1026.6 1026.8 -
30/07:30am 1.4 -0.4 1.0 97 0.2 CALM 0 0 0 0 1026.3 1026.5 -
30/07:00am 0.7 -1.3 0.1 96 0.2 CALM 0 0 0 0 1026.2 1026.4 -
30/06:30am 1.3 -0.6 0.7 96 0.2 CALM 0 0 0 0 1025.8 1025.9 -
30/06:00am 1.9 0.1 1.3 96 0.2 CALM 0 0 0 0 1025.5 1025.6 -
30/05:30am 1.8 -1.1 1.2 96 0.2 NW 6 9 3 5 1025.3 1025.4 -
30/05:00am 1.7 -0.9 1.1 96 0.2 SW 4 7 2 4 1024.9 1025.0 -
30/04:30am 1.9 -1.2 1.3 96 0.2 SW 7 9 4 5 1024.8 1024.9 -
30/04:00am 2.6 -0.4 2.0 96 0.2 SW 7 9 4 5 1024.7 1024.8 -
30/03:30am 2.5 -0.5 1.8 95 0.3 SSW 7 7 4 4 1024.5 1024.6 -
30/03:00am 3.2 0.5 2.5 95 0.3 SSE 6 6 3 3 1024.4 1024.5 0.0
30/02:30am 4.0 2.6 3.3 95 0.3 CALM 0 0 0 0 1024.5 1024.6 -
30/02:00am 3.6 2.1 2.9 95 0.3 CALM 0 2 0 1 1024.5 1024.6 -
30/01:30am 4.3 2.5 3.6 95 0.3 SSE 2 9 1 5 1024.3 1024.4 -
30/01:00am 4.0 2.5 3.1 94 0.4 CALM 0 0 0 0 1023.9 1024.0 -
30/12:30am 5.2 2.6 4.3 94 0.4 S 7 7 4 4 1023.9 1024.0 -
30/12:00am 5.1 3.0 4.1 93 0.4 NNW 4 6 2 3 1023.6 1023.7 -
 
Date/Time
WST
Temp
°C
App
Temp
°C
Dew
Point
°C
Rel
Hum
%
Delta-T
°C
Wind Press
QNH
hPa
Press
MSL
hPa
Rain since
9am
mm
Dir  Spd
km/h
Gust
km/h
Spd
kts
Gust
kts
29/11:30pm 5.6 4.4 4.7 94 0.4 CALM 0 0 0 0 1023.5 1023.6 -
29/11:00pm 5.7 3.4 4.7 93 0.4 NNW 6 9 3 5 1023.5 1023.6 -
29/10:30pm 6.5 5.4 5.3 92 0.5 CALM 0 0 0 0 1023.2 1023.3 -
29/10:00pm 6.7 5.6 5.3 91 0.6 CALM 0 0 0 0 1023.0 1023.1 -
29/09:30pm 7.0 5.2 5.3 89 0.8 SSW 4 6 2 3 1022.8 1022.9 -
29/09:00pm 8.1 6.4 6.1 87 0.9 SSW 4 6 2 3 1022.7 1022.8 0.0
29/08:30pm 8.4 6.3 6.0 85 1.1 S 6 9 3 5 1022.6 1022.7 -
29/08:00pm 9.4 6.2 6.7 83 1.3 S 13 15 7 8 1022.3 1022.4 -
29/07:30pm 10.6 8.1 6.7 77 1.9 SSW 9 9 5 5 1022.2 1022.3 -
29/07:00pm 10.8 8.5 7.3 79 1.7 SW 9 11 5 6 1021.8 1021.9 -
29/06:30pm 11.1 8.7 7.2 77 1.9 SW 9 11 5 6 1021.3 1021.4 -
29/06:00pm 11.8 8.3 7.1 73 2.3 SW 15 15 8 8 1020.8 1020.8 -
29/05:30pm 13.7 10.8 8.1 69 2.8 SW 13 19 7 10 1020.1 1020.2 -
29/05:00pm 14.8 11.5 8.1 64 3.4 WSW 15 19 8 10 1019.8 1019.9 -
29/04:30pm 15.7 11.3 7.5 58 4.2 WSW 20 28 11 15 1019.3 1019.4 -
29/04:00pm 15.9 10.7 7.4 57 4.3 WSW 24 32 13 17 1018.9 1019.0 -
29/03:30pm 17.0 13.0 8.9 59 4.3 SW 20 26 11 14 1018.5 1018.5 -
29/03:00pm 17.2 11.8 7.8 54 4.8 WSW 26 35 14 19 1018.2 1018.2 -
29/02:30pm 17.2 12.3 8.6 57 4.5 SW 24 32 13 17 1017.8 1017.8 -
29/11:30am 15.4 12.0 11.2 76 2.3 WSW 20 26 11 14 1018.4 1018.4 0.0
29/11:00am 15.5 12.2 11.5 77 2.2 WSW 20 26 11 14 1018.4 1018.4 0.0
29/10:30am 14.4 11.1 11.6 83 1.5 WSW 20 26 11 14 1018.4 1018.4 0.0
29/10:00am 13.8 11.5 11.8 88 1.1 SW 15 22 8 12 1018.3 1018.3 0.0
29/09:30am 13.5 10.5 11.9 90 0.9 WSW 19 24 10 13 1018.2 1018.2 0.0
29/09:00am 13.3 10.3 12.0 92 0.7 WSW 19 24 10 13 1017.8 1017.8 4.4
29/08:30am 12.8 10.5 11.7 93 0.6 W 15 19 8 10 1017.3 1017.4 4.4
29/08:00am 12.7 9.7 11.9 95 0.4 WNW 19 22 10 12 1017.0 1017.1 4.4
29/07:30am 12.8 10.3 12.2 96 0.3 W 17 24 9 13 1016.4 1016.5 4.4
29/07:00am 12.5 11.4 12.0 97 0.3 WNW 9 11 5 6 1016.1 1016.1 2.8
29/06:30am 11.9 11.0 11.3 96 0.3 WNW 7 7 4 4 1015.7 1015.7 2.6
29/06:00am 11.8 11.0 11.2 96 0.3 WNW 6 7 3 4 1015.3 1015.3 2.6
29/05:30am 12.0 10.7 11.4 96 0.3 WNW 9 11 5 6 1015.0 1015.0 2.6
29/05:00am 12.0 10.3 11.2 95 0.4 NW 11 13 6 7 1015.0 1015.0 2.6
29/04:30am 12.3 9.9 11.5 95 0.4 WNW 15 19 8 10 1014.8 1014.8 2.6
29/04:00am 12.4 10.4 11.6 95 0.4 W 13 17 7 9 1014.8 1014.8 2.2
29/03:30am 13.0 11.2 12.2 95 0.4 WSW 13 15 7 8 1014.7 1014.7 1.6
29/03:00am 13.2 10.1 12.3 94 0.5 NW 20 26 11 14 1014.4 1014.5 1.0
29/02:30am 13.0 9.9 12.1 94 0.5 NW 20 28 11 15 1014.5 1014.6 1.0
29/02:00am 12.9 9.2 11.6 92 0.7 NW 22 32 12 17 1014.7 1014.7 0.4
29/01:30am 12.7 9.6 11.6 93 0.6 NW 19 24 10 13 1014.8 1014.8 0.0
29/01:00am 12.9 10.5 11.5 91 0.8 NW 15 19 8 10 1014.8 1014.8 0.0
29/12:30am 12.9 11.6 11.3 90 0.9 WNW 9 13 5 7 1014.9 1014.9 0.0
29/12:00am 13.0 10.5 11.1 88 1.0 N 15 19 8 10 1014.7 1014.7 0.0
 
Date/Time
WST
Temp
°C
App
Temp
°C
Dew
Point
°C
Rel
Hum
%
Delta-T
°C
Wind Press
QNH
hPa
Press
MSL
hPa
Rain since
9am
mm
Dir  Spd
km/h
Gust
km/h
Spd
kts
Gust
kts
28/11:30pm 13.3 10.1 11.2 87 1.1 NNW 19 24 10 13 1014.9 1014.9 0.0
28/11:00pm 12.6 11.3 11.2 91 0.7 N 9 11 5 6 1015.2 1015.2 0.0
28/10:30pm 12.9 12.0 11.3 90 0.9 N 7 9 4 5 1015.2 1015.2 0.0
28/10:00pm 13.2 11.1 11.1 87 1.1 NW 13 19 7 10 1015.5 1015.5 0.0
28/09:30pm 13.8 11.2 10.8 82 1.6 W 15 17 8 9 1015.6 1015.6 0.0
28/09:00pm 14.2 10.6 10.0 76 2.2 WSW 19 24 10 13 1015.4 1015.4 0.0
28/08:30pm 14.9 11.9 7.9 63 3.6 NW 13 24 7 13 1015.4 1015.4 0.0
28/08:00pm 14.8 11.8 7.6 62 3.6 N 13 15 7 8 1015.0 1015.0 0.0
28/07:30pm 15.1 10.9 7.4 60 3.9 N 19 20 10 11 1014.5 1014.6 0.0
28/07:00pm 14.7 11.3 7.5 62 3.6 N 15 17 8 9 1014.8 1014.8 0.0
28/06:30pm 14.6 11.6 7.9 64 3.4 N 13 15 7 8 1014.8 1014.8 0.0
28/06:00pm 15.1 12.4 7.4 60 3.9 NNW 11 13 6 7 1014.5 1014.6 0.0
28/05:30pm 15.8 12.3 7.3 57 4.3 NNW 15 17 8 9 1014.2 1014.3 0.0
28/05:00pm 16.7 12.8 7.1 53 4.9 NW 17 20 9 11 1014.1 1014.2 0.0
28/04:30pm 17.8 13.2 6.7 48 5.6 NW 20 28 11 15 1013.9 1013.9 0.0
28/04:00pm 17.7 12.6 5.9 46 5.9 WNW 22 30 12 16 1013.8 1013.8 0.0

Other Formats:

Comma delimited format used in spreadsheet applications
http://www.bom.gov.au/fwo/IDW60801/IDW60801.95634.axf

JavaScript Object Notation format (JSON) in row-major order
http://www.bom.gov.au/fwo/IDW60801/IDW60801.95634.json